Aérodrome :
LOGIN :

S'inscrire | Disclaimer

   EN    FR    IT 

 










Légende :    VFR   VFR Marginal   IFR   IFR Intensif   IFR Très Intensif
Visi : 
Plafond : 
>= 8 km
>= 3000ft
5 à 8 km
1000 à 3000 ft
1500m à 5 km
500 à 1000 ft
800 à 1500m
200 à 500 ft
< 800m
< 200 ft
Symboles :   Orages  Brouillard  Fortes neiges  Fortes précipitations  Vent > 20 kt
SIGMETs :   Divers  Orages  Givrage  Turbulence  Onde Orograph.  Cendres Volcan.






- Altitude de l'aérodrome : 461 ft
- Code IATA : WIE


ETOU - Wiesbaden Army

DERNIER METAR :
  • 260256Z AUTO 00000KT 1200 R25/1400V1500 BR CLR 01/01 A3013 RMK AO2 SLP214 T00060006 58008 $

METARs EXPIRÉS :
  • 260236Z AUTO 00000KT 1400 R25/1400V1500 BR CLR 00/00 A3013 RMK AO2 SLP214 $
  • 260216Z AUTO 00000KT 1200 R25/1200V1500 BR FEW001 01/01 A3014 RMK AO2 SLP217 $
  • 260206Z AUTO 00000KT 1000 R25/1100V1300 BR SCT000 00/00 A3015 RMK AO2 SLP220 $
  • 260156Z AUTO 31003KT 1000 R25/1000V1100 BR BKN000 01/01 A3015 RMK AO2 SLP220 T00050005 $
  • 260136Z AUTO 00000KT 0800 R25/0800V0900 FG VV000 00/00 A3014 RMK AO2 SLP218 $
  • 260056Z AUTO 00000KT 0600 R25/0650V0750 FG VV000 00/00 A3015 RMK AO2 SLP221 T00030003 $
  • 260038Z AUTO 00000KT 0600 R25/0650V0800 FG BKN000 00/00 A3015 RMK AO2 SLP221 $
  • 260028Z AUTO 00000KT 0800 R25/0800V0900 FG BKN000 00/00 A3015 RMK AO2 BKN V SCT SLP221 $
  • 260018Z AUTO 00000KT 1000 R25/0900V1400 BR FEW001 00/00 A3015 RMK AO2 SLP221 $
  • 260016Z AUTO 00000KT 1200 R25/1000V1500 BR CLR 00/00 A3015 RMK AO2 SLP221 $
  • 252356Z AUTO 00000KT 1200 R25/0900VP1500 BR CLR 00/00 A3015 RMK AO2 SLP221 T00020002 10012 20000 57006 $

Prévision TAF périmée.



MET'MAP, la Météo Aéronautique d'un coup d'oeil ! - Copyright ORBIFLY Décembre 2007 - Disclaimer

ORBIFLY MET'MAP TEAM :

Programmation & Développement : Alexandra Zaïnal
Sur une idée originale de : Baudouin d'Aumeries
Assistance à la programmation : Marc-Olivier Méhu
Soutien technique & logistique : Manuel Goepfert

Contact : metmap@orbifly.com




SOURCES & CREDITS :

   NOAA